createdAt,value
2018-08-10T00:02:02.269Z,1.60
2018-08-10T00:04:30.789Z,1.60
2018-08-10T00:06:59.416Z,2.20
2018-08-10T00:09:27.997Z,1.50
2018-08-10T00:11:56.515Z,1.20
2018-08-10T00:14:25.123Z,1.57
2018-08-10T00:16:53.720Z,1.80
2018-08-10T00:19:22.239Z,1.70
2018-08-10T00:21:50.849Z,1.27
2018-08-10T00:24:19.358Z,1.57
2018-08-10T00:26:47.933Z,1.60
2018-08-10T00:29:16.433Z,1.53
2018-08-10T00:31:44.935Z,1.57
2018-08-10T00:34:13.507Z,1.60
2018-08-10T00:36:42.007Z,1.73
2018-08-10T00:39:12.719Z,1.97
2018-08-10T00:41:41.211Z,1.93
2018-08-10T00:44:09.778Z,2.17
2018-08-10T00:46:38.453Z,1.90
2018-08-10T00:49:07.027Z,1.63
2018-08-10T00:51:35.630Z,1.37
2018-08-10T00:54:04.076Z,1.83
2018-08-10T00:56:32.530Z,1.83
2018-08-10T00:59:01.069Z,1.53
2018-08-10T01:01:29.611Z,1.43
2018-08-10T01:03:58.098Z,1.43
2018-08-10T01:06:26.704Z,1.07
2018-08-10T01:08:55.265Z,1.30
2018-08-10T01:11:24.189Z,1.17
2018-08-10T01:13:52.683Z,1.60
2018-08-10T01:16:21.160Z,1.30
2018-08-10T01:18:49.621Z,1.60
2018-08-10T01:21:18.156Z,1.57
2018-08-10T01:23:46.615Z,1.23
2018-08-10T01:26:15.815Z,1.17
2018-08-10T01:28:44.419Z,1.30
2018-08-10T01:31:12.780Z,1.87
2018-08-10T01:33:41.227Z,1.27
2018-08-10T01:36:09.834Z,1.37
2018-08-10T01:38:38.451Z,1.23
2018-08-10T01:41:07.009Z,1.47
2018-08-10T01:43:35.972Z,1.30
2018-08-10T01:46:04.459Z,1.23
2018-08-10T01:48:33.597Z,1.37
2018-08-10T01:51:02.036Z,1.80
2018-08-10T01:53:30.504Z,1.50
2018-08-10T01:55:59.031Z,1.73
2018-08-10T01:58:27.620Z,1.47
2018-08-10T02:00:56.456Z,1.07
2018-08-10T02:03:24.870Z,1.13
2018-08-10T02:05:53.369Z,1.43
2018-08-10T02:08:21.856Z,1.30
2018-08-10T02:10:50.365Z,1.50
2018-08-10T02:13:18.849Z,1.70
2018-08-10T02:15:47.373Z,1.57
2018-08-10T02:18:15.830Z,1.70
2018-08-10T02:20:44.281Z,1.93
2018-08-10T02:23:12.748Z,1.30
2018-08-10T02:25:41.315Z,2.10
2018-08-10T02:28:09.802Z,1.50
2018-08-10T02:30:38.332Z,2.20
2018-08-10T02:33:07.703Z,1.50
2018-08-10T02:35:36.267Z,1.97
2018-08-10T02:38:04.724Z,1.90
2018-08-10T02:40:33.684Z,1.90
2018-08-10T02:43:02.222Z,1.80
2018-08-10T02:45:30.750Z,2.00
2018-08-10T02:47:59.290Z,2.10
2018-08-10T02:50:27.755Z,2.27
2018-08-10T02:52:56.368Z,1.90
2018-08-10T02:55:24.782Z,2.20
2018-08-10T02:57:53.250Z,2.10
2018-08-10T03:00:21.661Z,1.93
2018-08-10T03:02:50.119Z,1.83
2018-08-10T03:05:18.626Z,1.97
2018-08-10T03:07:47.053Z,1.83
2018-08-10T03:10:15.617Z,1.87
2018-08-10T03:12:44.041Z,1.90
2018-08-10T03:15:14.568Z,1.37
2018-08-10T03:17:43.339Z,1.43
2018-08-10T03:20:11.837Z,1.73
2018-08-10T03:22:40.628Z,2.20
2018-08-10T03:25:10.250Z,3.23
2018-08-10T03:27:39.021Z,2.97
2018-08-10T03:30:09.192Z,3.33
2018-08-10T03:32:37.700Z,5.60
2018-08-10T03:35:06.126Z,6.00
2018-08-10T03:37:34.681Z,6.67
2018-08-10T03:40:03.306Z,6.67
2018-08-10T03:42:31.704Z,9.10
2018-08-10T03:45:00.149Z,7.53
2018-08-10T03:47:28.584Z,8.40
2018-08-10T03:49:58.618Z,8.87
2018-08-10T03:52:27.077Z,9.03
2018-08-10T03:54:55.593Z,9.30
2018-08-10T03:57:24.081Z,14.43
2018-08-10T03:59:52.512Z,10.07
2018-08-10T04:02:21.037Z,13.40
2018-08-10T04:04:49.592Z,14.93
2018-08-10T04:07:18.097Z,11.20
2018-08-10T04:09:46.639Z,12.17
2018-08-10T04:12:15.174Z,12.10
2018-08-10T04:14:43.711Z,12.47
2018-08-10T04:17:16.623Z,11.97
2018-08-10T04:19:45.159Z,11.03
2018-08-10T04:22:13.620Z,10.10
2018-08-10T04:24:42.138Z,12.03
2018-08-10T04:27:10.598Z,12.07
2018-08-10T04:29:39.150Z,11.03
2018-08-10T04:32:07.584Z,11.77
2018-08-10T04:34:36.139Z,12.23
2018-08-10T04:37:04.577Z,13.33
2018-08-10T04:39:33.865Z,13.80
2018-08-10T04:42:02.356Z,14.07
2018-08-10T04:44:30.830Z,14.47
2018-08-10T04:46:59.256Z,14.03
2018-08-10T04:49:27.885Z,14.50
2018-08-10T04:51:56.313Z,16.20
2018-08-10T04:54:24.895Z,14.67
2018-08-10T04:56:53.391Z,14.27
2018-08-10T04:59:21.813Z,13.83
2018-08-10T05:01:50.253Z,13.70
2018-08-10T05:04:18.786Z,14.17
2018-08-10T05:06:47.292Z,13.90
2018-08-10T05:09:16.410Z,14.40
2018-08-10T05:11:44.967Z,15.30
2018-08-10T05:14:13.457Z,16.00
2018-08-10T05:16:42.302Z,17.87
2018-08-10T05:19:11.373Z,16.57
2018-08-10T05:21:39.859Z,17.83
2018-08-10T05:24:08.644Z,18.43
2018-08-10T05:26:37.319Z,15.90
2018-08-10T05:29:06.181Z,17.60
2018-08-10T05:31:34.706Z,15.40
2018-08-10T05:34:03.975Z,16.00
2018-08-10T05:36:32.425Z,16.23
2018-08-10T05:39:00.935Z,16.70
2018-08-10T05:41:29.459Z,15.17
2018-08-10T05:43:58.037Z,14.67
2018-08-10T05:46:26.475Z,13.00
2018-08-10T05:48:55.038Z,12.67
2018-08-10T05:51:23.532Z,10.07
2018-08-10T05:53:52.054Z,9.20
2018-08-10T05:56:20.538Z,7.33
2018-08-10T05:58:49.022Z,7.43
2018-08-10T06:01:17.581Z,5.97
2018-08-10T06:03:46.643Z,5.10
2018-08-10T06:06:19.758Z,4.33
2018-08-10T06:08:48.289Z,3.60
2018-08-10T06:11:16.848Z,3.27
2018-08-10T06:13:45.370Z,3.07
2018-08-10T06:16:14.544Z,3.00
2018-08-10T06:18:43.063Z,2.00
2018-08-10T06:21:11.599Z,1.53
2018-08-10T06:23:40.182Z,1.70
2018-08-10T06:26:08.671Z,1.90
2018-08-10T06:28:37.272Z,1.80
2018-08-10T06:31:05.779Z,2.03
2018-08-10T06:33:34.241Z,2.50
2018-08-10T06:36:03.553Z,3.10
2018-08-10T06:38:32.045Z,2.80
2018-08-10T06:41:00.542Z,3.50
2018-08-10T06:43:29.066Z,3.53
2018-08-10T06:45:57.629Z,3.60
2018-08-10T06:48:26.128Z,3.63
2018-08-10T06:50:54.658Z,3.17
2018-08-10T06:53:23.194Z,3.60
2018-08-10T06:55:51.818Z,3.37
2018-08-10T06:58:20.201Z,3.00
2018-08-10T07:00:48.844Z,3.10
2018-08-10T07:03:17.374Z,2.90
2018-08-10T07:05:45.968Z,3.37
2018-08-10T07:08:14.586Z,2.70
2018-08-10T07:10:43.076Z,2.90
2018-08-10T07:13:12.125Z,2.33
2018-08-10T07:15:40.577Z,2.60
2018-08-10T07:18:09.305Z,2.10
2018-08-10T07:20:37.843Z,2.20
2018-08-10T07:23:06.687Z,2.67
2018-08-10T07:25:35.217Z,2.30
2018-08-10T07:28:03.803Z,2.30
2018-08-10T07:30:32.355Z,2.30
2018-08-10T07:33:01.089Z,2.40
2018-08-10T07:35:29.597Z,2.17
2018-08-10T07:37:58.130Z,2.20
2018-08-10T07:40:26.654Z,2.30
2018-08-10T07:42:55.230Z,2.10
2018-08-10T07:45:23.740Z,1.53
2018-08-10T07:47:52.294Z,1.83
2018-08-10T07:50:20.847Z,1.47
2018-08-10T07:52:51.046Z,1.17
2018-08-10T07:55:20.229Z,1.43
2018-08-10T07:57:48.863Z,1.80
2018-08-10T08:00:17.413Z,1.57
2018-08-10T08:02:45.971Z,1.47
2018-08-10T08:05:14.493Z,1.53
2018-08-10T08:07:43.658Z,1.07
2018-08-10T08:10:12.924Z,1.07
2018-08-10T08:12:41.414Z,1.23
2018-08-10T08:15:09.893Z,1.50
2018-08-10T08:17:38.373Z,1.77
2018-08-10T08:20:07.461Z,1.13
2018-08-10T08:22:35.919Z,1.43
2018-08-10T08:25:04.950Z,1.90
2018-08-10T08:27:33.694Z,2.07
2018-08-10T08:30:03.319Z,1.80
2018-08-10T08:32:31.748Z,1.97
2018-08-10T08:35:00.354Z,1.50
2018-08-10T08:37:28.799Z,1.73
2018-08-10T08:40:09.069Z,1.80
2018-08-10T08:42:37.591Z,1.33
2018-08-10T08:46:10.090Z,1.40
2018-08-10T08:48:54.830Z,1.70
2018-08-10T08:51:24.968Z,1.23
2018-08-10T08:54:04.845Z,0.70
2018-08-10T08:56:40.336Z,0.90
2018-08-10T08:59:08.942Z,1.00
2018-08-10T09:01:37.449Z,1.10
2018-08-10T09:05:05.184Z,0.97
2018-08-10T09:07:33.958Z,1.23
2018-08-10T09:10:03.241Z,0.80
2018-08-10T09:12:31.756Z,0.70
2018-08-10T09:15:02.748Z,1.80
2018-08-10T09:17:31.390Z,1.03
2018-08-10T09:19:59.889Z,1.00
2018-08-10T09:22:28.653Z,1.00
2018-08-10T09:24:57.326Z,1.30
2018-08-10T09:27:25.994Z,1.47
2018-08-10T09:29:54.556Z,1.57
2018-08-10T09:32:23.734Z,1.00
2018-08-10T09:34:52.292Z,1.00
2018-08-10T09:37:20.835Z,1.20
2018-08-10T09:39:49.400Z,1.27
2018-08-10T09:42:17.996Z,1.67
2018-08-10T09:44:46.397Z,1.40
2018-08-10T09:47:14.898Z,1.60
2018-08-10T09:49:46.753Z,1.40
2018-08-10T09:52:15.338Z,1.50
2018-08-10T09:55:21.641Z,1.57
2018-08-10T09:57:51.766Z,1.43
2018-08-10T10:00:25.732Z,1.57
2018-08-10T10:02:59.711Z,1.63
2018-08-10T10:05:28.174Z,1.33
2018-08-10T10:07:57.504Z,1.30
2018-08-10T10:10:25.986Z,1.23
2018-08-10T10:12:54.801Z,1.20
2018-08-10T10:15:23.396Z,1.00
2018-08-10T10:17:51.930Z,1.20
2018-08-10T10:20:20.532Z,1.40
2018-08-10T10:22:49.445Z,1.30
2018-08-10T10:25:18.259Z,1.00
2018-08-10T10:27:47.055Z,1.70
2018-08-10T10:30:15.511Z,1.50
2018-08-10T10:32:44.280Z,2.07
2018-08-10T10:35:12.795Z,1.27
2018-08-10T10:37:41.363Z,1.60
2018-08-10T10:40:10.765Z,1.97
2018-08-10T10:42:39.528Z,1.73
2018-08-10T10:45:11.936Z,2.07
2018-08-10T10:47:41.006Z,1.23
2018-08-10T10:50:10.282Z,1.57
2018-08-10T10:52:39.017Z,1.53
2018-08-10T10:55:08.105Z,1.60
2018-08-10T10:57:36.624Z,1.43
2018-08-10T11:00:07.529Z,1.47
2018-08-10T11:02:36.006Z,1.27
2018-08-10T11:05:05.671Z,1.63
2018-08-10T11:07:34.164Z,1.37
2018-08-10T11:10:02.674Z,1.10
2018-08-10T11:12:31.276Z,1.57
2018-08-10T11:14:59.799Z,1.20
2018-08-10T11:17:28.322Z,1.20
2018-08-10T11:19:56.802Z,0.97
2018-08-10T11:22:25.333Z,1.30
2018-08-10T11:24:53.850Z,1.20
2018-08-10T11:27:23.051Z,1.37
2018-08-10T11:29:52.926Z,0.87
2018-08-10T11:32:21.597Z,1.20
2018-08-10T11:34:50.114Z,0.90
2018-08-10T11:37:18.684Z,1.30
2018-08-10T11:39:47.284Z,1.03
2018-08-10T11:42:15.754Z,1.40
2018-08-10T11:44:44.306Z,1.20
2018-08-10T11:47:13.387Z,1.13
2018-08-10T11:49:42.552Z,1.40
2018-08-10T11:52:11.061Z,1.20
2018-08-10T11:54:39.915Z,1.77
2018-08-10T11:57:08.497Z,1.80
2018-08-10T11:59:36.998Z,1.30
2018-08-10T12:02:05.580Z,1.30
2018-08-10T12:04:34.174Z,1.40
2018-08-10T12:07:03.545Z,1.50
2018-08-10T12:09:32.014Z,1.77
2018-08-10T12:12:02.979Z,1.70
2018-08-10T12:14:34.336Z,1.73
2018-08-10T12:17:03.117Z,1.30
2018-08-10T12:19:31.904Z,1.60
2018-08-10T12:22:00.393Z,1.60
2018-08-10T12:24:28.923Z,1.80
2018-08-10T12:26:57.468Z,1.30
2018-08-10T12:29:25.992Z,1.80
2018-08-10T12:31:54.622Z,1.40
2018-08-10T12:34:24.112Z,1.60
2018-08-10T12:36:52.756Z,1.70
2018-08-10T12:39:21.324Z,1.97
2018-08-10T12:41:50.234Z,1.80
2018-08-10T12:44:19.098Z,1.57
2018-08-10T12:46:47.720Z,1.80
2018-08-10T12:49:16.333Z,2.00
2018-08-10T12:51:44.875Z,1.80
2018-08-10T12:54:13.405Z,2.43
2018-08-10T12:56:42.515Z,2.17
2018-08-10T12:59:11.114Z,1.63
2018-08-10T13:01:39.611Z,1.43
2018-08-10T13:04:08.118Z,1.20
2018-08-10T13:06:36.616Z,1.10
2018-08-10T13:09:08.638Z,1.33
2018-08-10T13:11:37.406Z,1.23
2018-08-10T13:14:05.921Z,1.37
2018-08-10T13:16:34.444Z,1.20
2018-08-10T13:19:02.995Z,1.60
2018-08-10T13:21:31.604Z,1.50
2018-08-10T13:24:00.203Z,1.50
2018-08-10T13:26:28.712Z,1.50
2018-08-10T13:28:58.524Z,1.17
2018-08-10T13:31:27.017Z,1.47
2018-08-10T13:33:56.415Z,1.77
2018-08-10T13:36:25.371Z,1.37
2018-08-10T13:38:53.904Z,1.63
2018-08-10T13:41:22.375Z,1.80
2018-08-10T13:43:51.058Z,1.80
2018-08-10T13:46:19.642Z,1.80
2018-08-10T13:48:48.147Z,1.90
2018-08-10T13:51:16.657Z,1.90
2018-08-10T13:53:45.336Z,1.97
2018-08-10T13:56:13.874Z,1.80
2018-08-10T13:58:42.492Z,1.50
2018-08-10T14:01:15.261Z,1.40
2018-08-10T14:03:44.057Z,1.00
2018-08-10T14:06:13.255Z,0.83
2018-08-10T14:08:41.813Z,0.90
2018-08-10T14:11:10.310Z,0.73
2018-08-10T14:13:39.823Z,0.80
2018-08-10T14:16:08.257Z,0.90
2018-08-10T14:18:36.773Z,1.07
2018-08-10T14:21:05.449Z,1.07
2018-08-10T14:23:33.999Z,1.10
2018-08-10T14:26:02.485Z,1.13
2018-08-10T14:28:31.666Z,1.07
2018-08-10T14:31:02.729Z,1.37
2018-08-10T14:33:31.377Z,1.67
2018-08-10T14:35:59.906Z,1.33
2018-08-10T14:38:28.610Z,1.60
2018-08-10T14:40:57.150Z,1.50
2018-08-10T14:43:25.645Z,1.43
2018-08-10T14:45:54.107Z,1.60
2018-08-10T14:48:22.608Z,1.60
2018-08-10T14:50:51.084Z,1.80
2018-08-10T14:53:19.698Z,1.90
2018-08-10T14:55:48.240Z,1.80
2018-08-10T14:58:16.850Z,1.50
2018-08-10T15:00:45.766Z,2.00
2018-08-10T15:03:14.862Z,2.33
2018-08-10T15:05:43.554Z,2.57
2018-08-10T15:08:12.154Z,2.37
2018-08-10T15:10:40.712Z,2.37
2018-08-10T15:13:09.482Z,2.77
2018-08-10T15:15:37.890Z,3.30
2018-08-10T15:18:06.656Z,3.03
2018-08-10T15:20:35.132Z,2.83
2018-08-10T15:23:03.666Z,2.60
2018-08-10T15:25:32.216Z,2.40
2018-08-10T15:28:00.661Z,2.50
2018-08-10T15:30:29.321Z,2.20
2018-08-10T15:32:57.834Z,2.30
2018-08-10T15:35:26.453Z,2.60
2018-08-10T15:37:55.104Z,2.30
2018-08-10T15:40:23.655Z,2.23
2018-08-10T15:42:52.176Z,2.37
2018-08-10T15:45:20.984Z,2.50
2018-08-10T15:47:50.224Z,2.37
2018-08-10T15:50:19.932Z,2.43
2018-08-10T15:52:48.560Z,2.80
2018-08-10T15:55:17.215Z,2.20
2018-08-10T15:57:45.793Z,2.73
2018-08-10T16:00:20.864Z,2.70
2018-08-10T16:02:49.660Z,2.30
2018-08-10T16:05:18.323Z,2.60
2018-08-10T16:07:46.930Z,2.30
2018-08-10T16:10:15.565Z,2.63
2018-08-10T16:12:44.070Z,2.33
2018-08-10T16:15:14.559Z,2.40
2018-08-10T16:17:43.141Z,2.30
2018-08-10T16:20:15.454Z,1.90
2018-08-10T16:22:44.190Z,2.70
2018-08-10T16:25:12.861Z,2.93
2018-08-10T16:27:42.349Z,2.60
2018-08-10T16:30:12.443Z,2.80
2018-08-10T16:32:42.255Z,2.90
2018-08-10T16:35:12.075Z,2.80
2018-08-10T16:37:42.484Z,1.90
2018-08-10T16:40:12.152Z,2.43
2018-08-10T16:42:41.300Z,1.90
2018-08-10T16:45:10.705Z,2.33
2018-08-10T16:47:39.654Z,2.50
2018-08-10T16:50:11.392Z,2.23
2018-08-10T16:52:41.443Z,1.73
2018-08-10T16:55:13.657Z,1.80
2018-08-10T16:57:42.983Z,2.10
2018-08-10T17:00:13.672Z,1.77
2018-08-10T17:02:42.238Z,1.43
2018-08-10T17:05:11.118Z,1.77
2018-08-10T17:07:40.561Z,2.10
2018-08-10T17:10:09.393Z,2.40
2018-08-10T17:12:39.316Z,2.60
2018-08-10T17:15:11.246Z,2.67
2018-08-10T17:17:40.474Z,2.60
2018-08-10T17:20:09.746Z,2.23
2018-08-10T17:22:38.276Z,2.63
2018-08-10T17:25:08.156Z,2.70
2018-08-10T17:27:36.763Z,2.30
2018-08-10T17:30:07.395Z,2.07
2018-08-10T17:32:36.490Z,2.53
2018-08-10T17:35:05.770Z,2.17
2018-08-10T17:37:34.238Z,3.03
2018-08-10T17:40:03.118Z,2.73
2018-08-10T17:42:31.689Z,2.50
2018-08-10T17:45:00.263Z,2.30
2018-08-10T17:47:28.986Z,1.83
2018-08-10T17:49:57.952Z,2.27
2018-08-10T17:52:26.613Z,2.00
2018-08-10T17:54:57.551Z,2.60
2018-08-10T17:57:26.649Z,2.63
2018-08-10T17:59:55.782Z,2.00
2018-08-10T18:02:24.403Z,1.63
2018-08-10T18:04:53.350Z,1.53
2018-08-10T18:07:21.976Z,1.50
2018-08-10T18:09:50.708Z,1.80
2018-08-10T18:12:19.385Z,1.70
2018-08-10T18:14:48.589Z,1.50
2018-08-10T18:17:17.373Z,1.40
2018-08-10T18:19:46.170Z,3.63
2018-08-10T18:22:14.956Z,1.63
2018-08-10T18:24:43.548Z,1.80
2018-08-10T18:27:12.986Z,2.80
2018-08-10T18:29:42.190Z,2.70
2018-08-10T18:32:11.313Z,3.10
2018-08-10T18:34:40.027Z,2.37
2018-08-10T18:37:08.647Z,2.77
2018-08-10T18:39:37.428Z,3.07
2018-08-10T18:42:06.784Z,3.20
2018-08-10T18:44:36.743Z,2.30
2018-08-10T18:47:05.785Z,2.60
2018-08-10T18:49:34.773Z,2.50
2018-08-10T18:52:03.414Z,3.10
2018-08-10T18:54:32.210Z,2.90
2018-08-10T18:57:00.990Z,2.97
2018-08-10T18:59:29.843Z,2.73
2018-08-10T19:01:58.492Z,3.07
2018-08-10T19:04:27.761Z,2.60
2018-08-10T19:06:56.728Z,3.23
2018-08-10T19:09:26.280Z,3.00
2018-08-10T19:11:56.198Z,2.90
2018-08-10T19:14:24.976Z,2.63
2018-08-10T19:16:54.305Z,3.67
2018-08-10T19:19:24.307Z,3.37
2018-08-10T19:21:53.106Z,2.93
2018-08-10T19:24:21.930Z,3.70
2018-08-10T19:26:51.005Z,3.47
2018-08-10T19:29:19.548Z,3.40
2018-08-10T19:31:48.135Z,2.80
2018-08-10T19:34:17.281Z,3.10
2018-08-10T19:36:46.112Z,3.17
2018-08-10T19:39:14.653Z,3.30
2018-08-10T19:41:43.777Z,3.67
2018-08-10T19:44:12.947Z,4.40
2018-08-10T19:46:42.643Z,4.57
2018-08-10T19:49:11.239Z,4.50
2018-08-10T19:51:39.730Z,4.63
2018-08-10T19:54:08.244Z,4.17
2018-08-10T19:56:37.040Z,4.40
2018-08-10T19:59:05.754Z,3.33
2018-08-10T20:01:34.338Z,3.97
2018-08-10T20:04:02.915Z,3.23
2018-08-10T20:06:31.617Z,3.93
2018-08-10T20:09:00.179Z,4.07
2018-08-10T20:11:28.745Z,4.30
2018-08-10T20:13:57.406Z,4.73
2018-08-10T20:16:26.181Z,5.63
2018-08-10T20:18:55.001Z,4.10
2018-08-10T20:21:23.926Z,4.70
2018-08-10T20:23:52.492Z,3.80
2018-08-10T20:26:21.733Z,4.40
2018-08-10T20:28:50.450Z,4.50
2018-08-10T20:31:20.620Z,4.13
2018-08-10T20:33:49.430Z,4.00
2018-08-10T20:36:18.651Z,3.60
2018-08-10T20:38:47.724Z,4.10
2018-08-10T20:41:16.340Z,3.77
2018-08-10T20:43:45.900Z,4.17
2018-08-10T20:46:14.507Z,4.27
2018-08-10T20:48:45.483Z,4.20
2018-08-10T20:51:16.756Z,3.47
2018-08-10T20:53:47.248Z,2.50
2018-08-10T20:56:21.192Z,3.20
2018-08-10T20:58:51.653Z,3.83
2018-08-10T21:01:22.728Z,3.17
2018-08-10T21:03:51.924Z,4.20
2018-08-10T21:06:22.235Z,4.23
2018-08-10T21:08:50.818Z,3.33
2018-08-10T21:11:20.518Z,3.50
2018-08-10T21:13:49.646Z,4.07
2018-08-10T21:16:18.283Z,3.93
2018-08-10T21:18:46.941Z,4.30
2018-08-10T21:21:15.602Z,3.23
2018-08-10T21:23:44.124Z,1.80
2018-08-10T21:26:13.051Z,1.77
2018-08-10T21:28:41.685Z,1.70
2018-08-10T21:31:10.210Z,1.50
2018-08-10T21:33:38.908Z,1.67
2018-08-10T21:36:07.411Z,1.73
2018-08-10T21:38:36.615Z,1.60
2018-08-10T21:41:05.206Z,1.67
2018-08-10T21:43:33.715Z,1.87
2018-08-10T21:46:02.213Z,1.83
2018-08-10T21:48:30.876Z,1.77
2018-08-10T21:50:59.324Z,2.23
2018-08-10T21:53:27.904Z,1.87
2018-08-10T21:55:56.597Z,1.80
2018-08-10T21:58:25.480Z,1.43
2018-08-10T22:01:01.268Z,1.63
2018-08-10T22:03:30.252Z,1.90
2018-08-10T22:05:58.906Z,2.00
2018-08-10T22:08:28.145Z,1.70
2018-08-10T22:10:56.767Z,2.13
2018-08-10T22:13:30.586Z,1.80
2018-08-10T22:16:04.583Z,2.40
2018-08-10T22:18:39.213Z,2.80
2018-08-10T22:21:08.415Z,2.57
2018-08-10T22:23:36.909Z,2.80
2018-08-10T22:26:05.561Z,2.47
2018-08-10T22:28:34.198Z,2.53
2018-08-10T22:31:03.625Z,2.83
2018-08-10T22:33:32.189Z,2.30
2018-08-10T22:36:02.257Z,2.73
2018-08-10T22:38:31.564Z,2.47
2018-08-10T22:41:01.066Z,2.63
2018-08-10T22:43:29.713Z,2.70
2018-08-10T22:45:58.223Z,2.77
2018-08-10T22:48:26.741Z,3.00
2018-08-10T22:50:55.342Z,3.07
2018-08-10T22:53:23.949Z,3.53
2018-08-10T22:55:52.492Z,3.43
2018-08-10T22:58:21.421Z,3.40
2018-08-10T23:00:50.476Z,3.27
2018-08-10T23:03:19.084Z,3.17
2018-08-10T23:05:47.977Z,2.83
2018-08-10T23:08:17.033Z,3.10
2018-08-10T23:10:45.561Z,2.87
2018-08-10T23:13:14.095Z,2.73
2018-08-10T23:15:42.796Z,2.37
2018-08-10T23:18:11.235Z,2.20
2018-08-10T23:20:39.868Z,2.30
2018-08-10T23:23:08.391Z,2.47
2018-08-10T23:25:37.399Z,2.33
2018-08-10T23:28:06.117Z,1.90
2018-08-10T23:30:34.713Z,2.50
2018-08-10T23:33:03.275Z,2.50
2018-08-10T23:35:31.929Z,2.27
2018-08-10T23:38:00.531Z,2.30
2018-08-10T23:40:29.073Z,2.27
2018-08-10T23:42:58.267Z,2.33
2018-08-10T23:45:27.246Z,2.10
2018-08-10T23:47:55.900Z,2.37
2018-08-10T23:50:24.549Z,2.70
2018-08-10T23:52:53.085Z,3.00
2018-08-10T23:55:22.134Z,2.63
2018-08-10T23:57:50.801Z,2.50
